Terminal Aerodrome Forecast
Issued by NWS

Home | Current Version | Previous Version | Text Only | Print | Product List | Glossary On
Versions: 1 2 3 4 5 6 7 8 9 10 11 12 13
000
FTUS43 KLSX 061734
TAFSUS
TAF
KSUS 061734Z 0618/0718 27007KT P6SM SKC
     FM070000 VRB04KT P6SM SKC
     FM071200 25007KT P6SM SCT250=

USA.gov is the U.S. government's official web portal to all federal, state and local government web resources and services.